createdAt,value
2019-02-17T00:00:56.695Z,25.30
2019-02-17T00:01:56.716Z,25.30
2019-02-17T00:02:56.717Z,26.10
2019-02-17T00:03:56.730Z,25.70
2019-02-17T00:04:56.743Z,25.50
2019-02-17T00:05:56.756Z,26.30
2019-02-17T00:06:56.763Z,26.10
2019-02-17T00:07:56.779Z,26.30
2019-02-17T00:08:56.801Z,25.70
2019-02-17T00:09:56.802Z,26.40
2019-02-17T00:10:56.816Z,25.60
2019-02-17T00:11:56.823Z,25.70
2019-02-17T00:12:56.837Z,25.10
2019-02-17T00:13:56.846Z,25.20
2019-02-17T00:14:56.856Z,25.70
2019-02-17T00:15:56.883Z,26.50
2019-02-17T00:16:56.885Z,24.40
2019-02-17T00:17:58.085Z,25.00
2019-02-17T00:18:56.908Z,25.40
2019-02-17T00:19:56.929Z,24.90
2019-02-17T00:20:57.026Z,25.70
2019-02-17T00:22:56.946Z,25.60
2019-02-17T00:23:56.960Z,26.20
2019-02-17T00:24:56.976Z,26.70
2019-02-17T00:25:57.006Z,26.00
2019-02-17T00:26:57.001Z,26.50
2019-02-17T00:27:57.012Z,26.50
2019-02-17T00:28:59.389Z,25.70
2019-02-17T00:29:57.052Z,26.10
2019-02-17T00:30:57.052Z,26.90
2019-02-17T00:31:57.060Z,27.00
2019-02-17T00:32:57.064Z,27.10
2019-02-17T00:33:57.081Z,27.30
2019-02-17T00:34:57.086Z,27.60
2019-02-17T00:35:57.102Z,26.30
2019-02-17T00:36:57.109Z,26.60
2019-02-17T00:37:57.157Z,26.40
2019-02-17T00:38:57.135Z,27.70
2019-02-17T00:39:57.149Z,28.30
2019-02-17T00:40:57.154Z,27.50
2019-02-17T00:41:57.164Z,27.60
2019-02-17T00:42:57.179Z,28.40
2019-02-17T00:43:57.197Z,27.80
2019-02-17T00:44:57.203Z,27.90
2019-02-17T00:45:57.222Z,27.40
2019-02-17T00:46:58.219Z,27.50
2019-02-17T00:47:57.240Z,27.60
2019-02-17T00:48:57.246Z,28.10
2019-02-17T00:49:57.257Z,27.90
2019-02-17T00:50:57.288Z,26.90
2019-02-17T00:51:57.281Z,27.40
2019-02-17T00:52:57.291Z,28.80
2019-02-17T00:53:57.303Z,28.40
2019-02-17T00:54:57.313Z,27.40
2019-02-17T00:55:57.323Z,28.60
2019-02-17T00:56:57.341Z,28.10
2019-02-17T00:57:57.349Z,27.30
2019-02-17T00:58:57.356Z,29.00
2019-02-17T00:59:57.368Z,27.80
2019-02-17T01:00:57.399Z,28.40
2019-02-17T01:01:57.473Z,28.80
2019-02-17T01:02:57.418Z,29.10
2019-02-17T01:03:57.429Z,28.30
2019-02-17T01:04:57.429Z,27.60
2019-02-17T01:05:57.437Z,27.60
2019-02-17T01:06:57.449Z,27.80
2019-02-17T01:07:57.455Z,28.20
2019-02-17T01:08:57.468Z,28.10
2019-02-17T01:09:57.479Z,28.00
2019-02-17T01:10:57.496Z,29.00
2019-02-17T01:11:57.507Z,28.50
2019-02-17T01:12:57.517Z,29.00
2019-02-17T01:13:57.536Z,27.80
2019-02-17T01:14:57.534Z,28.40
2019-02-17T01:15:57.548Z,26.90
2019-02-17T01:16:57.557Z,28.70
2019-02-17T01:17:57.571Z,27.90
2019-02-17T01:18:57.576Z,28.50
2019-02-17T01:19:57.612Z,28.00
2019-02-17T01:20:57.599Z,27.90
2019-02-17T01:21:57.613Z,27.10
2019-02-17T01:22:57.630Z,28.50
2019-02-17T01:23:57.640Z,28.60
2019-02-17T01:24:57.649Z,27.40
2019-02-17T01:25:57.658Z,27.50
2019-02-17T01:26:57.667Z,28.50
2019-02-17T01:27:57.684Z,28.80
2019-02-17T01:28:57.690Z,27.90
2019-02-17T01:29:57.700Z,27.90
2019-02-17T01:30:57.719Z,27.90
2019-02-17T01:31:57.722Z,27.30
2019-02-17T01:32:57.734Z,27.00
2019-02-17T01:33:58.467Z,28.70
2019-02-17T01:34:57.767Z,27.70
2019-02-17T01:35:57.815Z,28.40
2019-02-17T01:36:57.781Z,27.90
2019-02-17T01:37:58.305Z,28.10
2019-02-17T01:38:57.803Z,29.10
2019-02-17T01:39:57.810Z,30.00
2019-02-17T01:40:57.826Z,31.60
2019-02-17T01:41:57.837Z,29.20
2019-02-17T01:42:57.843Z,27.30
2019-02-17T01:43:57.854Z,26.20
2019-02-17T01:44:57.872Z,26.80
2019-02-17T01:45:57.889Z,26.30
2019-02-17T01:46:57.891Z,25.40
2019-02-17T01:47:57.899Z,25.10
2019-02-17T01:48:57.909Z,25.10
2019-02-17T01:49:57.921Z,25.60
2019-02-17T01:50:57.928Z,24.10
2019-02-17T01:51:57.950Z,24.90
2019-02-17T01:52:57.952Z,25.40
2019-02-17T01:53:57.963Z,25.40
2019-02-17T01:54:57.973Z,23.70
2019-02-17T01:55:58.002Z,25.20
2019-02-17T01:56:57.996Z,25.20
2019-02-17T01:57:58.014Z,25.00
2019-02-17T01:58:58.020Z,25.10
2019-02-17T01:59:58.030Z,25.00
2019-02-17T02:00:58.041Z,24.60
2019-02-17T02:01:58.050Z,24.00
2019-02-17T02:02:58.071Z,23.50
2019-02-17T02:03:58.072Z,24.20
2019-02-17T02:04:58.084Z,22.80
2019-02-17T02:05:58.101Z,24.10
2019-02-17T02:06:58.133Z,23.60
2019-02-17T02:07:58.126Z,23.50
2019-02-17T02:08:58.130Z,24.60
2019-02-17T02:09:58.140Z,24.80
2019-02-17T02:10:58.153Z,23.70
2019-02-17T02:11:58.166Z,23.40
2019-02-17T02:12:58.175Z,23.60
2019-02-17T02:13:58.184Z,24.80
2019-02-17T02:14:58.197Z,23.70
2019-02-17T02:15:58.207Z,23.80
2019-02-17T02:16:58.224Z,24.30
2019-02-17T02:17:58.226Z,23.40
2019-02-17T02:18:58.236Z,23.70
2019-02-17T02:19:58.248Z,24.50
2019-02-17T02:20:58.260Z,24.40
2019-02-17T02:21:58.274Z,23.70
2019-02-17T02:22:58.283Z,23.20
2019-02-17T02:23:58.292Z,24.10
2019-02-17T02:24:58.304Z,24.00
2019-02-17T02:25:58.322Z,24.00
2019-02-17T02:26:58.327Z,24.20
2019-02-17T02:27:58.338Z,23.60
2019-02-17T02:28:58.346Z,24.10
2019-02-17T02:29:58.357Z,24.60
2019-02-17T02:30:58.370Z,24.60
2019-02-17T02:31:58.385Z,24.10
2019-02-17T02:32:58.703Z,24.90
2019-02-17T02:33:58.404Z,22.90
2019-02-17T02:35:58.426Z,22.90
2019-02-17T02:36:58.442Z,24.50
2019-02-17T02:37:58.444Z,22.90
2019-02-17T02:38:58.463Z,24.10
2019-02-17T02:39:58.467Z,23.20
2019-02-17T02:40:58.481Z,24.30
2019-02-17T02:41:58.490Z,22.40
2019-02-17T02:42:58.509Z,22.50
2019-02-17T02:43:58.516Z,23.40
2019-02-17T02:44:58.522Z,23.00
2019-02-17T02:45:58.542Z,21.60
2019-02-17T02:46:58.542Z,23.30
2019-02-17T02:47:58.564Z,23.50
2019-02-17T02:48:58.584Z,22.30
2019-02-17T02:49:58.603Z,23.30
2019-02-17T02:50:58.610Z,21.90
2019-02-17T02:51:58.609Z,23.10
2019-02-17T02:52:58.614Z,21.80
2019-02-17T02:53:58.627Z,23.00
2019-02-17T02:54:58.636Z,22.70
2019-02-17T02:55:58.641Z,22.50
2019-02-17T02:56:58.660Z,21.80
2019-02-17T02:57:58.665Z,21.90
2019-02-17T02:58:58.675Z,22.50
2019-02-17T02:59:58.694Z,22.10
2019-02-17T03:00:58.698Z,22.20
2019-02-17T03:01:58.713Z,22.10
2019-02-17T03:02:58.764Z,21.30
2019-02-17T03:03:58.733Z,20.30
2019-02-17T03:04:58.743Z,20.70
2019-02-17T03:05:58.771Z,20.20
2019-02-17T03:06:58.786Z,19.50
2019-02-17T03:07:58.781Z,20.50
2019-02-17T03:08:58.790Z,21.10
2019-02-17T03:09:58.808Z,20.90
2019-02-17T03:10:58.830Z,20.30
2019-02-17T03:11:58.824Z,20.80
2019-02-17T03:12:58.830Z,20.70
2019-02-17T03:13:58.846Z,21.00
2019-02-17T03:14:58.854Z,21.70
2019-02-17T03:15:58.862Z,21.10
2019-02-17T03:17:00.816Z,21.70
2019-02-17T03:17:58.889Z,21.20
2019-02-17T03:18:58.893Z,21.70
2019-02-17T03:19:58.905Z,21.40
2019-02-17T03:20:58.917Z,21.20
2019-02-17T03:21:58.933Z,21.80
2019-02-17T03:22:58.938Z,21.30
2019-02-17T03:23:58.957Z,21.60
2019-02-17T03:24:58.964Z,22.20
2019-02-17T03:25:58.972Z,21.30
2019-02-17T03:26:59.010Z,21.30
2019-02-17T03:27:58.994Z,21.30
2019-02-17T03:28:59.004Z,22.10
2019-02-17T03:30:05.098Z,21.00
2019-02-17T03:30:59.025Z,22.20
2019-02-17T03:31:59.036Z,21.00
2019-02-17T03:32:59.047Z,20.40
2019-02-17T03:33:59.061Z,21.10
2019-02-17T03:34:59.109Z,20.90
2019-02-17T03:35:59.082Z,21.00
2019-02-17T03:36:59.091Z,21.20
2019-02-17T03:37:59.109Z,21.20
2019-02-17T03:38:59.115Z,22.00
2019-02-17T03:39:59.135Z,21.50
2019-02-17T03:40:59.140Z,21.30
2019-02-17T03:41:59.143Z,21.60
2019-02-17T03:42:59.158Z,21.50
2019-02-17T03:43:59.168Z,20.90
2019-02-17T03:44:59.176Z,21.50
2019-02-17T03:45:59.195Z,21.80
2019-02-17T03:46:59.206Z,21.40
2019-02-17T03:47:59.213Z,21.20
2019-02-17T03:48:59.225Z,21.10
2019-02-17T03:49:59.231Z,20.90
2019-02-17T03:50:59.241Z,20.80
2019-02-17T03:51:59.251Z,21.20
2019-02-17T03:52:59.260Z,21.10
2019-02-17T03:53:59.270Z,20.40
2019-02-17T03:54:59.280Z,20.70
2019-02-17T03:55:59.294Z,20.40
2019-02-17T03:56:59.304Z,20.60
2019-02-17T03:57:59.326Z,20.60
2019-02-17T03:58:59.337Z,21.50
2019-02-17T03:59:59.334Z,21.70
2019-02-17T04:00:59.352Z,20.60
2019-02-17T04:01:59.359Z,20.40
2019-02-17T04:02:59.469Z,21.60
2019-02-17T04:03:59.381Z,20.50
2019-02-17T04:04:59.442Z,20.40
2019-02-17T04:05:59.432Z,20.50
2019-02-17T04:06:59.419Z,21.10
2019-02-17T04:07:59.420Z,20.60
2019-02-17T04:08:59.435Z,21.10
2019-02-17T04:09:59.446Z,20.70
2019-02-17T04:10:59.454Z,20.20
2019-02-17T04:11:59.466Z,20.90
2019-02-17T04:12:59.478Z,20.20
2019-02-17T04:13:59.490Z,20.90
2019-02-17T04:14:59.496Z,20.90
2019-02-17T04:15:59.518Z,20.70
2019-02-17T04:16:59.516Z,20.30
2019-02-17T04:17:59.529Z,20.20
2019-02-17T04:18:59.541Z,20.70
2019-02-17T04:19:59.556Z,20.10
2019-02-17T04:20:59.564Z,20.50
2019-02-17T04:21:59.582Z,20.40
2019-02-17T04:22:59.581Z,20.10
2019-02-17T04:23:59.612Z,21.00
2019-02-17T04:24:59.612Z,20.10
2019-02-17T04:25:59.626Z,20.30
2019-02-17T04:26:59.633Z,19.50
2019-02-17T04:27:59.647Z,20.30
2019-02-17T04:28:59.644Z,20.70
2019-02-17T04:29:59.664Z,20.40
2019-02-17T04:30:59.675Z,20.40
2019-02-17T04:31:59.677Z,20.00
2019-02-17T04:32:59.692Z,21.20
2019-02-17T04:33:59.704Z,21.40
2019-02-17T04:34:59.709Z,21.00
2019-02-17T04:35:59.724Z,19.90
2019-02-17T04:36:59.748Z,20.50
2019-02-17T04:37:59.742Z,21.40
2019-02-17T04:38:59.751Z,20.70
2019-02-17T04:39:59.760Z,20.80
2019-02-17T04:40:59.779Z,20.60
2019-02-17T04:41:59.786Z,20.30
2019-02-17T04:42:59.807Z,21.10
2019-02-17T04:43:59.810Z,19.90
2019-02-17T04:44:59.816Z,20.80
2019-02-17T04:45:59.835Z,20.80
2019-02-17T04:46:59.834Z,20.10
2019-02-17T04:47:59.845Z,20.50
2019-02-17T04:48:59.858Z,20.40
2019-02-17T04:49:59.868Z,20.70
2019-02-17T04:50:59.880Z,20.70
2019-02-17T04:51:59.895Z,20.00
2019-02-17T04:52:59.902Z,20.00
2019-02-17T04:53:59.916Z,19.80
2019-02-17T04:54:59.923Z,20.50
2019-02-17T04:55:59.933Z,20.80
2019-02-17T04:56:59.942Z,20.50
2019-02-17T04:57:59.954Z,20.60
2019-02-17T04:58:59.963Z,20.20
2019-02-17T04:59:59.972Z,20.10
2019-02-17T05:00:59.985Z,20.30
2019-02-17T05:02:00.002Z,19.50
2019-02-17T05:03:00.003Z,20.10
2019-02-17T05:04:00.028Z,20.20
2019-02-17T05:05:00.408Z,19.50
2019-02-17T05:06:00.084Z,20.50
2019-02-17T05:07:00.058Z,20.40
2019-02-17T05:08:00.059Z,19.80
2019-02-17T05:09:00.067Z,20.50
2019-02-17T05:10:00.121Z,20.70
2019-02-17T05:11:00.091Z,19.80
2019-02-17T05:12:00.119Z,20.30
2019-02-17T05:13:00.111Z,20.70
2019-02-17T05:14:00.121Z,20.20
2019-02-17T05:15:00.317Z,19.80
2019-02-17T05:16:00.145Z,20.70
2019-02-17T05:17:00.156Z,20.80
2019-02-17T05:18:00.163Z,20.60
2019-02-17T05:19:00.176Z,20.60
2019-02-17T05:20:00.283Z,19.70
2019-02-17T05:21:00.201Z,20.30
2019-02-17T05:22:00.207Z,20.70
2019-02-17T05:23:00.217Z,20.90
2019-02-17T05:24:00.228Z,20.30
2019-02-17T05:25:00.371Z,20.70
2019-02-17T05:26:00.248Z,19.90
2019-02-17T05:27:00.258Z,19.70
2019-02-17T05:28:00.274Z,20.00
2019-02-17T05:29:00.287Z,20.30
2019-02-17T05:30:00.555Z,21.00
2019-02-17T05:31:00.302Z,21.40
2019-02-17T05:32:00.314Z,20.50
2019-02-17T05:33:00.330Z,20.60
2019-02-17T05:34:00.339Z,20.70
2019-02-17T05:35:00.379Z,20.90
2019-02-17T05:36:00.356Z,20.50
2019-02-17T05:37:00.376Z,20.80
2019-02-17T05:38:00.374Z,21.00
2019-02-17T05:39:00.385Z,20.30
2019-02-17T05:40:00.422Z,20.70
2019-02-17T05:41:00.408Z,20.20
2019-02-17T05:42:00.424Z,20.80
2019-02-17T05:43:00.450Z,20.80
2019-02-17T05:44:00.441Z,20.80
2019-02-17T05:45:00.527Z,20.00
2019-02-17T05:46:00.464Z,21.20
2019-02-17T05:47:00.470Z,21.20
2019-02-17T05:48:00.490Z,20.60
2019-02-17T05:49:00.491Z,19.00
2019-02-17T05:50:00.500Z,20.90
2019-02-17T05:51:00.513Z,20.40
2019-02-17T05:52:00.520Z,19.60
2019-02-17T05:53:00.536Z,19.90
2019-02-17T05:54:00.544Z,19.90
2019-02-17T05:55:00.550Z,19.90
2019-02-17T05:56:00.561Z,19.90
2019-02-17T05:57:00.575Z,19.70
2019-02-17T05:58:00.590Z,20.00
2019-02-17T05:59:00.597Z,20.20
2019-02-17T06:00:00.738Z,20.30
2019-02-17T06:01:03.938Z,19.70
2019-02-17T06:02:00.634Z,19.30
2019-02-17T06:03:00.650Z,20.20
2019-02-17T06:04:00.646Z,19.70
2019-02-17T06:05:00.660Z,19.80
2019-02-17T06:06:00.667Z,20.20
2019-02-17T06:07:00.679Z,20.80
2019-02-17T06:08:00.752Z,20.80
2019-02-17T06:09:00.716Z,20.30
2019-02-17T06:10:00.719Z,20.30
2019-02-17T06:11:00.720Z,20.50
2019-02-17T06:12:00.737Z,20.10
2019-02-17T06:13:00.737Z,20.20
2019-02-17T06:14:00.754Z,20.00
2019-02-17T06:15:00.840Z,20.20
2019-02-17T06:16:00.882Z,19.80
2019-02-17T06:17:00.781Z,19.50
2019-02-17T06:18:00.792Z,19.50
2019-02-17T06:19:00.803Z,19.50
2019-02-17T06:20:00.821Z,19.60
2019-02-17T06:21:00.823Z,20.00
2019-02-17T06:22:00.853Z,19.20
2019-02-17T06:23:00.850Z,19.80
2019-02-17T06:24:00.860Z,19.90
2019-02-17T06:25:00.867Z,20.00
2019-02-17T06:26:00.883Z,19.40
2019-02-17T06:27:00.894Z,20.10
2019-02-17T06:28:00.897Z,19.30
2019-02-17T06:29:00.908Z,20.40
2019-02-17T06:30:00.914Z,19.20
2019-02-17T06:31:00.929Z,19.80
2019-02-17T06:32:00.943Z,19.50
2019-02-17T06:33:00.949Z,19.50
2019-02-17T06:34:00.967Z,19.50
2019-02-17T06:35:00.968Z,19.20
2019-02-17T06:36:00.994Z,19.40
2019-02-17T06:37:00.988Z,19.30
2019-02-17T06:38:01.005Z,18.70
2019-02-17T06:39:01.010Z,18.70
2019-02-17T06:40:01.038Z,18.10
2019-02-17T06:41:01.167Z,19.20
2019-02-17T06:42:01.049Z,18.60
2019-02-17T06:43:01.054Z,19.40
2019-02-17T06:44:01.063Z,19.10
2019-02-17T06:45:01.075Z,18.80
2019-02-17T06:46:01.084Z,18.90
2019-02-17T06:47:01.118Z,18.50
2019-02-17T06:48:01.108Z,19.80
2019-02-17T06:49:01.113Z,19.10
2019-02-17T06:50:01.128Z,19.30
2019-02-17T06:51:01.138Z,19.50
2019-02-17T06:52:01.161Z,20.50
2019-02-17T06:53:01.157Z,18.70
2019-02-17T06:54:01.169Z,19.40
2019-02-17T06:55:01.176Z,19.90
2019-02-17T06:56:01.191Z,19.70
2019-02-17T06:57:01.206Z,19.80
2019-02-17T06:58:01.222Z,18.50
2019-02-17T06:59:01.217Z,18.70
2019-02-17T07:00:01.244Z,19.40
2019-02-17T07:01:01.241Z,18.80
2019-02-17T07:02:01.255Z,19.30
2019-02-17T07:03:01.273Z,18.50
2019-02-17T07:04:01.327Z,19.50
2019-02-17T07:05:01.292Z,19.20
2019-02-17T07:06:01.295Z,19.70
2019-02-17T07:07:01.311Z,19.90
2019-02-17T07:08:01.331Z,19.10
2019-02-17T07:09:01.331Z,19.10
2019-02-17T07:10:01.334Z,19.00
2019-02-17T07:11:01.344Z,19.30
2019-02-17T07:12:01.359Z,18.90
2019-02-17T07:13:01.387Z,19.50
2019-02-17T07:14:01.379Z,18.70
2019-02-17T07:15:01.388Z,19.00
2019-02-17T07:16:01.401Z,19.40
2019-02-17T07:17:01.407Z,18.90
2019-02-17T07:18:01.425Z,19.00
2019-02-17T07:19:01.426Z,19.00
2019-02-17T07:20:01.443Z,19.40
2019-02-17T07:21:01.452Z,18.60
2019-02-17T07:22:01.521Z,19.30
2019-02-17T07:23:01.479Z,18.40
2019-02-17T07:24:01.482Z,18.60
2019-02-17T07:25:01.505Z,18.90
2019-02-17T07:26:01.508Z,19.10
2019-02-17T07:27:01.524Z,18.60
2019-02-17T07:28:01.529Z,18.70
2019-02-17T07:29:01.533Z,18.20
2019-02-17T07:30:01.543Z,18.40
2019-02-17T07:31:01.560Z,18.80
2019-02-17T07:32:01.570Z,19.60
2019-02-17T07:33:01.576Z,18.70
2019-02-17T07:34:01.587Z,17.90
2019-02-17T07:35:01.620Z,18.10
2019-02-17T07:36:01.617Z,19.00
2019-02-17T07:37:01.618Z,19.00
2019-02-17T07:38:01.636Z,18.80
2019-02-17T07:39:01.638Z,19.60
2019-02-17T07:40:01.644Z,19.80
2019-02-17T07:41:01.665Z,18.50
2019-02-17T07:42:01.670Z,18.40
2019-02-17T07:43:01.681Z,19.70
2019-02-17T07:44:01.701Z,18.50
2019-02-17T07:45:01.707Z,18.10
2019-02-17T07:46:01.709Z,18.70
2019-02-17T07:47:01.723Z,19.90
2019-02-17T07:48:01.733Z,19.00
2019-02-17T07:49:01.750Z,19.50
2019-02-17T07:50:01.773Z,19.20
2019-02-17T07:51:01.767Z,19.20
2019-02-17T07:52:01.773Z,19.30
2019-02-17T07:53:01.787Z,18.50
2019-02-17T07:54:01.796Z,19.40
2019-02-17T07:55:01.816Z,18.40
2019-02-17T07:56:01.820Z,19.70
2019-02-17T07:57:01.834Z,20.00
2019-02-17T07:58:01.837Z,19.70
2019-02-17T07:59:01.848Z,18.80
2019-02-17T08:00:01.861Z,19.50
2019-02-17T08:01:01.871Z,19.30
2019-02-17T08:02:01.894Z,18.80
2019-02-17T08:03:01.889Z,19.10
2019-02-17T08:04:01.903Z,18.40
2019-02-17T08:05:01.934Z,18.30
2019-02-17T08:06:01.925Z,17.80
2019-02-17T08:07:01.933Z,19.10
2019-02-17T08:08:01.943Z,18.90
2019-02-17T08:09:01.955Z,19.10
2019-02-17T08:10:01.966Z,18.20
2019-02-17T08:11:04.275Z,18.70
2019-02-17T08:12:02.003Z,17.40
2019-02-17T08:13:02.021Z,17.80
2019-02-17T08:14:02.009Z,18.10
2019-02-17T08:15:02.017Z,18.10
2019-02-17T08:16:02.034Z,18.30
2019-02-17T08:17:02.078Z,18.30
2019-02-17T08:18:02.070Z,18.00
2019-02-17T08:19:02.063Z,16.80
2019-02-17T08:20:02.070Z,18.00
2019-02-17T08:21:02.100Z,18.10
2019-02-17T08:22:02.092Z,18.50
2019-02-17T08:23:02.104Z,18.80
2019-02-17T08:24:02.115Z,19.00
2019-02-17T08:25:02.123Z,17.60
2019-02-17T08:26:02.146Z,17.80
2019-02-17T08:27:04.545Z,16.90
2019-02-17T08:28:02.159Z,17.10
2019-02-17T08:29:02.167Z,17.30
2019-02-17T08:30:02.187Z,17.90
2019-02-17T08:31:02.191Z,18.10
2019-02-17T08:32:02.201Z,18.10
2019-02-17T08:33:02.215Z,17.30
2019-02-17T08:34:02.266Z,17.90
2019-02-17T08:35:02.240Z,18.20
2019-02-17T08:36:02.251Z,17.30
2019-02-17T08:37:02.256Z,17.40
2019-02-17T08:38:03.471Z,17.70
2019-02-17T08:39:02.301Z,16.80
2019-02-17T08:40:02.291Z,17.40
2019-02-17T08:41:02.350Z,17.00
2019-02-17T08:42:02.326Z,16.80
2019-02-17T08:43:02.325Z,17.90
2019-02-17T08:44:02.345Z,17.40
2019-02-17T08:45:02.351Z,17.70
2019-02-17T08:46:02.356Z,17.40
2019-02-17T08:47:02.362Z,17.30
2019-02-17T08:48:02.382Z,17.40
2019-02-17T08:49:02.393Z,17.30
2019-02-17T08:50:02.397Z,17.50
2019-02-17T08:51:02.411Z,17.80
2019-02-17T08:52:02.427Z,17.20
2019-02-17T08:53:02.428Z,16.80
2019-02-17T08:54:02.444Z,17.30
2019-02-17T08:55:02.451Z,17.30
2019-02-17T08:56:02.462Z,18.00
2019-02-17T08:57:02.475Z,17.40
2019-02-17T08:58:02.489Z,17.50
2019-02-17T08:59:02.592Z,17.70
2019-02-17T09:00:02.519Z,17.30
2019-02-17T09:01:02.519Z,16.80
2019-02-17T09:02:05.951Z,16.60
2019-02-17T09:03:03.108Z,17.30
2019-02-17T09:04:02.551Z,17.80
2019-02-17T09:05:02.894Z,16.70
2019-02-17T09:06:02.577Z,16.60
2019-02-17T09:07:02.609Z,16.70
2019-02-17T09:08:04.074Z,17.00
2019-02-17T09:09:02.609Z,16.00
2019-02-17T09:10:02.616Z,16.50
2019-02-17T09:11:02.643Z,15.50
2019-02-17T09:12:02.636Z,16.60
2019-02-17T09:13:02.652Z,16.30
2019-02-17T09:14:02.659Z,16.70
2019-02-17T09:15:02.669Z,16.80
2019-02-17T09:16:02.687Z,16.40
2019-02-17T09:17:02.695Z,15.40
2019-02-17T09:18:02.705Z,16.70
2019-02-17T09:19:02.718Z,16.50
2019-02-17T09:20:02.730Z,16.10
2019-02-17T09:21:02.735Z,16.40
2019-02-17T09:22:02.759Z,16.20
2019-02-17T09:23:02.759Z,15.90
2019-02-17T09:24:02.776Z,16.20
2019-02-17T09:25:02.783Z,16.30
2019-02-17T09:26:02.801Z,15.60
2019-02-17T09:27:02.811Z,15.90
2019-02-17T09:28:02.815Z,15.30
2019-02-17T09:29:02.828Z,15.60
2019-02-17T09:30:02.838Z,15.80
2019-02-17T09:31:02.858Z,15.30
2019-02-17T09:32:02.865Z,16.40
2019-02-17T09:33:02.879Z,16.00
2019-02-17T09:34:02.885Z,15.80
2019-02-17T09:35:02.906Z,15.40
2019-02-17T09:36:02.913Z,15.70
2019-02-17T09:37:02.920Z,16.30
2019-02-17T09:38:02.938Z,15.40
2019-02-17T09:39:02.942Z,15.90
2019-02-17T09:40:02.954Z,15.30
2019-02-17T09:41:02.970Z,15.60
2019-02-17T09:42:02.977Z,15.40
2019-02-17T09:43:02.993Z,15.30
2019-02-17T09:44:03.005Z,15.80
2019-02-17T09:45:03.064Z,16.00
2019-02-17T09:46:03.026Z,15.50
2019-02-17T09:47:03.034Z,15.90
2019-02-17T09:48:03.047Z,15.70
2019-02-17T09:49:03.061Z,15.30
2019-02-17T09:50:03.084Z,15.60
2019-02-17T09:51:03.093Z,15.60
2019-02-17T09:52:03.100Z,16.10
2019-02-17T09:53:03.108Z,16.10
2019-02-17T09:54:03.127Z,15.80
2019-02-17T09:55:03.129Z,15.60
2019-02-17T09:56:03.141Z,15.70
2019-02-17T09:57:03.155Z,16.00
2019-02-17T09:58:03.162Z,16.80
2019-02-17T09:59:03.183Z,16.10
2019-02-17T10:00:03.193Z,15.70
2019-02-17T10:01:03.198Z,15.50
2019-02-17T10:02:03.214Z,16.10
2019-02-17T10:03:03.225Z,15.70
2019-02-17T10:04:03.249Z,16.80
2019-02-17T10:05:03.246Z,15.90
2019-02-17T10:06:03.261Z,15.80
2019-02-17T10:07:03.275Z,16.10
2019-02-17T10:08:03.282Z,16.60
2019-02-17T10:09:03.308Z,16.30
2019-02-17T10:10:03.365Z,16.10
2019-02-17T10:11:03.314Z,16.00
2019-02-17T10:12:03.333Z,16.70
2019-02-17T10:13:03.340Z,16.50
2019-02-17T10:14:03.356Z,15.90
2019-02-17T10:15:03.407Z,16.80
2019-02-17T10:16:03.376Z,16.50
2019-02-17T10:17:03.401Z,16.50
2019-02-17T10:18:03.400Z,16.10
2019-02-17T10:19:03.413Z,16.50
2019-02-17T10:20:03.426Z,16.20
2019-02-17T10:21:03.443Z,16.60
2019-02-17T10:22:03.454Z,16.50
2019-02-17T10:23:03.464Z,16.70
2019-02-17T10:24:03.474Z,16.60
2019-02-17T10:25:03.492Z,15.80
2019-02-17T10:26:03.497Z,16.60
2019-02-17T10:27:03.515Z,17.40
2019-02-17T10:28:03.524Z,17.00
2019-02-17T10:29:03.831Z,16.70
2019-02-17T10:30:03.553Z,16.20
2019-02-17T10:31:03.571Z,16.30
2019-02-17T10:32:03.583Z,16.30
2019-02-17T10:33:03.591Z,17.10
2019-02-17T10:34:03.599Z,16.20
2019-02-17T10:35:04.177Z,17.50
2019-02-17T10:36:03.643Z,17.00
2019-02-17T10:37:03.704Z,16.70
2019-02-17T10:38:03.651Z,16.90
2019-02-17T10:39:03.665Z,16.40
2019-02-17T10:40:03.686Z,16.10
2019-02-17T10:41:03.737Z,15.50
2019-02-17T10:42:03.756Z,15.60
2019-02-17T10:43:03.770Z,16.60
2019-02-17T10:44:03.724Z,16.40
2019-02-17T10:45:03.740Z,15.70
2019-02-17T10:46:05.969Z,16.00
2019-02-17T10:47:03.760Z,16.30
2019-02-17T10:48:03.771Z,16.10
2019-02-17T10:49:03.794Z,15.90
2019-02-17T10:50:03.800Z,14.80
2019-02-17T10:51:03.829Z,15.60
2019-02-17T10:52:03.831Z,15.00
2019-02-17T10:53:03.837Z,15.20
2019-02-17T10:54:03.902Z,15.70
2019-02-17T10:55:03.864Z,15.50
2019-02-17T10:56:03.886Z,15.90
2019-02-17T10:57:03.888Z,14.70
2019-02-17T10:58:03.903Z,15.00
2019-02-17T10:59:03.921Z,15.20
2019-02-17T11:00:03.933Z,14.70
2019-02-17T11:01:03.945Z,15.00
2019-02-17T11:02:03.956Z,15.20
2019-02-17T11:03:03.978Z,15.70
2019-02-17T11:04:03.990Z,15.00
2019-02-17T11:05:03.993Z,15.40
2019-02-17T11:06:04.411Z,15.80
2019-02-17T11:07:04.025Z,15.50
2019-02-17T11:08:04.060Z,15.90
2019-02-17T11:09:04.051Z,14.60
2019-02-17T11:10:04.067Z,16.00
2019-02-17T11:11:04.121Z,15.40
2019-02-17T11:12:04.085Z,15.20
2019-02-17T11:13:04.098Z,16.10
2019-02-17T11:14:04.109Z,15.70
2019-02-17T11:15:04.123Z,16.00
2019-02-17T11:16:04.145Z,15.40
2019-02-17T11:17:04.151Z,15.80
2019-02-17T11:18:04.172Z,15.90
2019-02-17T11:19:04.183Z,16.80
2019-02-17T11:20:04.191Z,16.20
2019-02-17T11:21:04.567Z,16.80
2019-02-17T11:22:04.223Z,15.70
2019-02-17T11:23:04.234Z,16.20
2019-02-17T11:24:04.241Z,16.70
2019-02-17T11:25:04.258Z,15.30
2019-02-17T11:26:04.266Z,15.60
2019-02-17T11:27:04.282Z,15.80
2019-02-17T11:28:04.295Z,16.10
2019-02-17T11:29:04.309Z,15.60
2019-02-17T11:30:05.512Z,15.20
2019-02-17T11:31:04.335Z,15.50
2019-02-17T11:32:04.351Z,15.20
2019-02-17T11:33:04.360Z,15.30
2019-02-17T11:34:04.375Z,16.10
2019-02-17T11:35:04.388Z,16.10
2019-02-17T11:36:04.405Z,15.70
2019-02-17T11:37:04.419Z,16.40
2019-02-17T11:38:04.428Z,15.90
2019-02-17T11:39:04.442Z,15.50
2019-02-17T11:40:04.459Z,15.50
2019-02-17T11:41:04.470Z,14.50
2019-02-17T11:42:04.482Z,14.90
2019-02-17T11:43:04.511Z,15.50
2019-02-17T11:44:04.517Z,15.30
2019-02-17T11:45:04.523Z,15.90
2019-02-17T11:46:04.534Z,15.90
2019-02-17T11:47:04.560Z,15.90
2019-02-17T11:48:04.563Z,15.10
2019-02-17T11:49:04.581Z,15.20
2019-02-17T11:50:04.593Z,15.60
2019-02-17T11:51:04.617Z,15.80
2019-02-17T11:52:04.618Z,16.10
2019-02-17T11:53:04.637Z,15.10
2019-02-17T11:54:04.642Z,15.90
2019-02-17T11:55:04.662Z,15.10
2019-02-17T11:56:04.672Z,16.20
2019-02-17T11:57:04.691Z,15.30
2019-02-17T11:58:04.702Z,15.70
2019-02-17T11:59:04.715Z,16.00
2019-02-17T12:00:04.740Z,15.60
2019-02-17T12:01:05.434Z,16.30
2019-02-17T12:02:04.756Z,15.80
2019-02-17T12:03:08.019Z,15.10
2019-02-17T12:04:04.792Z,14.70
2019-02-17T12:05:04.793Z,15.30
2019-02-17T12:06:04.862Z,15.90
2019-02-17T12:07:04.826Z,15.20
2019-02-17T12:08:04.840Z,15.80
2019-02-17T12:09:04.855Z,15.90
2019-02-17T12:10:04.864Z,15.30
2019-02-17T12:11:04.880Z,15.10
2019-02-17T12:12:04.893Z,15.70
2019-02-17T12:13:04.904Z,15.80
2019-02-17T12:14:04.923Z,15.90
2019-02-17T12:15:05.036Z,15.80
2019-02-17T12:16:04.960Z,15.40
2019-02-17T12:17:04.964Z,16.50
2019-02-17T12:18:04.973Z,16.50
2019-02-17T12:19:04.984Z,16.90
2019-02-17T12:20:05.004Z,15.00
2019-02-17T12:21:05.036Z,15.30
2019-02-17T12:22:05.038Z,16.00
2019-02-17T12:23:05.048Z,15.40
2019-02-17T12:24:05.055Z,15.80
2019-02-17T12:25:05.073Z,15.70
2019-02-17T12:26:05.094Z,15.90
2019-02-17T12:27:05.136Z,15.60
2019-02-17T12:28:05.176Z,15.30
2019-02-17T12:29:05.126Z,15.60
2019-02-17T12:30:05.142Z,16.40
2019-02-17T12:31:05.162Z,16.20
2019-02-17T12:32:05.181Z,16.50
2019-02-17T12:33:05.197Z,15.80
2019-02-17T12:34:05.196Z,16.30
2019-02-17T12:35:05.210Z,15.90
2019-02-17T12:36:05.221Z,16.30
2019-02-17T12:37:05.238Z,15.80
2019-02-17T12:38:05.250Z,15.70
2019-02-17T12:39:05.348Z,16.60
2019-02-17T12:40:05.283Z,15.70
2019-02-17T12:41:05.296Z,16.10
2019-02-17T12:42:05.308Z,16.20
2019-02-17T12:43:05.321Z,16.00
2019-02-17T12:44:05.406Z,16.50
2019-02-17T12:45:05.350Z,15.60
2019-02-17T12:46:05.368Z,16.10
2019-02-17T12:47:05.376Z,15.30
2019-02-17T12:48:05.398Z,16.10
2019-02-17T12:49:05.403Z,16.40
2019-02-17T12:50:05.427Z,15.50
2019-02-17T12:51:05.440Z,15.40
2019-02-17T12:52:05.460Z,15.60
2019-02-17T12:53:05.477Z,15.70
2019-02-17T12:54:05.473Z,16.00
2019-02-17T12:55:05.491Z,16.40